Time;durP1;ratioP1;P1;durP2;ratioP2;P2;SDS_P1;SDS_P2;PMS_P1;PMS_P2;Temp;Humidity;BMP_temperature;BMP_pressure;BME280_temperature;BME280_humidity;BME280_pressure;Samples;Min_cycle;Max_cycle;Signal;HPM_P1;HPM_P2
2023/12/16 00:01:49;;;;;;;5.53;3.20;;;;;;;2.39;100.00;98692.56;5130345;27;20033;-76
2023/12/16 00:04:14;;;;;;;6.45;2.47;;;;;;;2.39;100.00;98711.03;5126657;27;20037;-76
2023/12/16 00:06:40;;;;;;;7.47;3.22;;;;;;;2.38;100.00;98709.28;5145180;27;20035;-75
2023/12/16 00:09:06;;;;;;;4.18;2.75;;;;;;;2.38;100.00;98706.66;5134578;27;20099;-75
2023/12/16 00:11:32;;;;;;;4.45;2.85;;;;;;;2.32;100.00;98701.44;5127234;27;20027;-75
2023/12/16 00:13:57;;;;;;;4.05;2.40;;;;;;;2.36;100.00;98704.91;5109541;27;20075;-75
2023/12/16 00:16:26;;;;;;;2.65;1.83;;;;;;;2.19;100.00;98702.44;5132088;27;20826;-75
2023/12/16 00:18:52;;;;;;;3.25;1.63;;;;;;;1.96;100.00;98704.44;5118018;27;20447;-75
2023/12/16 00:21:18;;;;;;;2.55;1.88;;;;;;;1.86;100.00;98698.38;5135036;27;20027;-76
2023/12/16 00:23:43;;;;;;;3.35;1.98;;;;;;;1.79;100.00;98693.16;5153520;27;20039;-75
2023/12/16 00:26:09;;;;;;;2.60;1.88;;;;;;;1.76;100.00;98712.53;5153373;27;20035;-75
2023/12/16 00:28:35;;;;;;;4.97;2.72;;;;;;;1.72;100.00;98715.22;5134837;27;20035;-75
2023/12/16 00:31:00;;;;;;;2.80;1.95;;;;;;;1.59;100.00;98717.94;5153171;27;20027;-76
2023/12/16 00:33:26;;;;;;;3.33;2.13;;;;;;;1.54;100.00;98721.47;5134552;27;20480;-75
2023/12/16 00:35:51;;;;;;;5.30;2.10;;;;;;;1.55;100.00;98729.41;5153469;27;20101;-75
2023/12/16 00:38:17;;;;;;;5.78;2.10;;;;;;;1.52;100.00;98729.41;5134886;27;20103;-75
2023/12/16 00:40:43;;;;;;;3.58;2.03;;;;;;;1.50;100.00;98736.47;5117004;27;20023;-77
2023/12/16 00:43:08;;;;;;;2.90;1.83;;;;;;;1.44;100.00;98736.53;5127538;27;20035;-74
2023/12/16 00:45:34;;;;;;;5.35;2.20;;;;;;;1.39;100.00;98726.88;5134710;27;20118;-75
2023/12/16 00:48:00;;;;;;;4.38;2.42;;;;;;;1.45;100.00;98738.25;5117187;27;20409;-75
2023/12/16 00:50:26;;;;;;;3.88;2.38;;;;;;;1.54;100.00;98748.72;5152537;27;20027;-75
2023/12/16 00:52:51;;;;;;;4.80;2.85;;;;;;;1.48;100.00;98732.94;5153133;27;20041;-75
2023/12/16 00:55:17;;;;;;;3.47;2.22;;;;;;;1.62;100.00;98744.28;5134507;27;20031;-75
2023/12/16 00:57:42;;;;;;;4.10;2.58;;;;;;;1.74;100.00;98745.06;5133888;27;20425;-75
2023/12/16 01:00:09;;;;;;;7.35;3.40;;;;;;;1.66;100.00;98745.16;5134323;27;20073;-75
2023/12/16 01:02:34;;;;;;;5.18;3.05;;;;;;;1.62;100.00;98751.31;5133861;27;20091;-75
2023/12/16 01:05:00;;;;;;;4.85;2.95;;;;;;;1.80;100.00;98763.50;5152525;27;20039;-76
2023/12/16 01:07:25;;;;;;;4.20;2.53;;;;;;;1.84;100.00;98767.88;5134329;27;20053;-76
2023/12/16 01:09:51;;;;;;;4.57;2.97;;;;;;;1.80;100.00;98769.66;5152565;27;20485;-75
2023/12/16 01:12:17;;;;;;;5.07;3.33;;;;;;;1.85;100.00;98769.59;5152375;27;20045;-76
2023/12/16 01:14:43;;;;;;;6.40;3.47;;;;;;;1.85;100.00;98772.22;5133803;27;20482;-75
2023/12/16 01:17:08;;;;;;;9.65;5.13;;;;;;;1.71;100.00;98758.28;5152513;27;20026;-75
2023/12/16 01:19:34;;;;;;;6.35;3.50;;;;;;;1.69;100.00;98762.72;5152367;27;20434;-76
2023/12/16 01:22:00;;;;;;;5.93;3.65;;;;;;;1.67;100.00;98770.63;5128045;27;20106;-75
2023/12/16 01:24:26;;;;;;;8.43;3.53;;;;;;;1.55;100.00;98766.31;5133841;27;20405;-76
2023/12/16 01:26:52;;;;;;;8.10;3.45;;;;;;;1.56;100.00;98777.72;5133308;27;20086;-76
2023/12/16 01:29:17;;;;;;;7.20;3.53;;;;;;;1.48;100.00;98777.75;5152263;27;20026;-75
2023/12/16 01:31:43;;;;;;;5.50;3.25;;;;;;;1.54;100.00;98782.13;5133284;27;20017;-75
2023/12/16 01:34:08;;;;;;;5.60;3.50;;;;;;;1.52;100.00;98771.59;5152128;27;20019;-75
2023/12/16 01:36:34;;;;;;;5.70;3.72;;;;;;;1.61;100.00;98775.94;5152025;27;20078;-75
2023/12/16 01:39:00;;;;;;;5.10;3.50;;;;;;;1.60;100.00;98782.97;5133555;27;20113;-75
2023/12/16 01:41:26;;;;;;;6.35;3.92;;;;;;;1.68;100.00;98774.13;5132640;27;20026;-75
2023/12/16 01:43:52;;;;;;;9.77;4.63;;;;;;;1.66;100.00;98773.28;5151759;27;20033;-76
2023/12/16 01:46:18;;;;;;;7.05;3.65;;;;;;;1.71;100.00;98768.84;5133374;27;20026;-75
2023/12/16 01:48:44;;;;;;;7.22;3.83;;;;;;;1.73;100.00;98781.13;5115883;27;20027;-75
2023/12/16 01:51:10;;;;;;;6.47;3.20;;;;;;;1.70;100.00;98785.53;5133205;27;20037;-75
2023/12/16 01:53:36;;;;;;;8.63;3.50;;;;;;;1.74;100.00;98790.78;5116051;27;20138;-75
2023/12/16 01:56:02;;;;;;;8.00;3.90;;;;;;;1.74;100.00;98797.81;5115753;27;20025;-75
2023/12/16 01:58:28;;;;;;;8.27;4.50;;;;;;;1.60;100.00;98790.00;5107317;27;20022;-75
2023/12/16 02:00:54;;;;;;;7.80;3.90;;;;;;;1.66;100.00;98792.63;5127617;27;20046;-75
2023/12/16 02:03:21;;;;;;;8.20;3.63;;;;;;;1.60;100.00;98795.25;5133354;27;20071;-76
2023/12/16 02:05:47;;;;;;;5.70;2.75;;;;;;;1.56;100.00;98798.81;5115891;27;20177;-76
2023/12/16 02:08:12;;;;;;;6.25;3.17;;;;;;;1.58;100.00;98803.19;5127595;27;20109;-77
2023/12/16 02:10:38;;;;;;;5.20;3.10;;;;;;;1.69;100.00;98802.25;5151603;27;20109;-76
2023/12/16 02:13:04;;;;;;;6.18;3.67;;;;;;;1.73;100.00;98793.41;5132983;27;20029;-76
2023/12/16 02:15:31;;;;;;;6.70;3.95;;;;;;;1.80;100.00;98805.69;5133112;27;20027;-76
2023/12/16 02:17:56;;;;;;;8.63;3.85;;;;;;;1.78;100.00;98815.38;5125008;27;20474;-77
2023/12/16 02:20:22;;;;;;;8.95;4.28;;;;;;;1.76;100.00;98811.88;5108209;27;20080;-76
2023/12/16 02:22:48;;;;;;;8.05;3.83;;;;;;;1.67;100.00;98817.19;5130829;28;20031;-76
2023/12/16 02:25:15;;;;;;;6.78;3.80;;;;;;;1.76;100.00;98828.56;5130925;27;20470;-76
2023/12/16 02:27:44;;;;;;;6.55;3.85;;;;;;;1.79;100.00;98823.28;5133094;27;20117;-76
2023/12/16 02:30:10;;;;;;;5.10;3.35;;;;;;;1.79;100.00;98823.28;5127364;28;20027;-76
2023/12/16 02:32:36;;;;;;;5.43;3.28;;;;;;;1.83;100.00;98829.41;5130779;28;20076;-76
2023/12/16 02:35:02;;;;;;;4.85;3.10;;;;;;;1.86;100.00;98835.53;5111912;27;20350;-76
2023/12/16 02:37:29;;;;;;;9.75;3.42;;;;;;;1.81;100.00;98826.78;5132896;27;20022;-76
2023/12/16 02:39:54;;;;;;;6.03;3.38;;;;;;;1.80;100.00;98835.59;5132992;27;20035;-77
2023/12/16 02:42:20;;;;;;;9.75;5.85;;;;;;;1.89;100.00;98846.06;5125957;27;20501;-77
2023/12/16 02:44:46;;;;;;;15.73;9.65;;;;;;;1.88;100.00;98846.06;5113618;27;20065;-77
2023/12/16 02:47:11;;;;;;;15.50;6.95;;;;;;;1.89;100.00;98843.44;5151043;27;20046;-77
2023/12/16 02:49:37;;;;;;;8.48;4.28;;;;;;;1.82;100.00;98841.72;5151246;27;20078;-77
2023/12/16 02:52:03;;;;;;;6.47;3.30;;;;;;;1.74;100.00;98858.47;5134861;27;20019;-77
2023/12/16 02:54:28;;;;;;;6.18;3.30;;;;;;;1.74;100.00;98861.13;5133704;27;20023;-77
2023/12/16 02:56:54;;;;;;;5.75;2.97;;;;;;;1.69;100.00;98868.19;5149638;27;20037;-77
2023/12/16 02:59:20;;;;;;;6.38;3.42;;;;;;;1.79;100.00;98873.38;5136526;27;20027;-76
2023/12/16 03:01:46;;;;;;;6.00;3.22;;;;;;;1.70;100.00;98870.78;5155080;27;20025;-75
2023/12/16 03:04:12;;;;;;;10.05;3.45;;;;;;;1.62;100.00;98862.06;5136545;27;20421;-76
2023/12/16 03:06:46;;;;;;;6.40;3.30;;;;;;;1.69;100.00;98873.47;5115303;27;20043;-76
2023/12/16 03:09:12;;;;;;;8.48;3.55;;;;;;;1.63;100.00;98864.69;5146924;27;20023;-76
2023/12/16 03:11:38;;;;;;;6.57;3.70;;;;;;;1.63;100.00;98880.50;5150722;27;20019;-76
2023/12/16 03:14:04;;;;;;;8.55;4.07;;;;;;;1.67;100.00;98877.84;5136392;27;20022;-77
2023/12/16 03:16:33;;;;;;;7.18;4.22;;;;;;;1.73;100.00;98891.00;5133832;27;20030;-77
2023/12/16 03:18:59;;;;;;;5.05;3.28;;;;;;;1.63;100.00;98887.56;5134300;27;20046;-77
2023/12/16 03:21:25;;;;;;;6.28;3.50;;;;;;;1.58;100.00;98898.13;5127879;27;20026;-76
2023/12/16 03:23:50;;;;;;;5.70;3.33;;;;;;;1.56;100.00;98891.09;5115367;27;20031;-76
2023/12/16 03:26:16;;;;;;;6.03;3.97;;;;;;;1.55;100.00;98891.97;5132722;27;20058;-75
2023/12/16 03:28:41;;;;;;;5.38;3.55;;;;;;;1.68;100.00;98909.50;5135000;27;20026;-75
2023/12/16 03:31:07;;;;;;;8.32;4.18;;;;;;;1.63;100.00;98888.41;5135961;27;20026;-76
2023/12/16 03:33:32;;;;;;;7.60;4.60;;;;;;;1.78;100.00;98905.06;5118723;27;20022;-75
2023/12/16 03:35:58;;;;;;;6.25;4.00;;;;;;;1.53;100.00;98884.09;5135900;27;20466;-76
2023/12/16 03:38:24;;;;;;;5.45;3.53;;;;;;;1.62;100.00;98884.03;5135744;27;20019;-76
2023/12/16 03:40:49;;;;;;;6.10;3.60;;;;;;;1.57;100.00;98883.16;5154333;27;20022;-77
2023/12/16 03:43:17;;;;;;;6.75;3.72;;;;;;;1.58;100.00;98890.22;5135864;27;20075;-76
2023/12/16 03:45:43;;;;;;;5.38;3.13;;;;;;;1.52;100.00;98894.63;5135876;27;20022;-75
2023/12/16 03:48:09;;;;;;;5.97;3.40;;;;;;;1.48;100.00;98877.94;5135657;27;20401;-76
2023/12/16 03:50:34;;;;;;;5.82;3.75;;;;;;;1.44;100.00;98872.72;5118648;27;20526;-75
2023/12/16 03:53:00;;;;;;;7.53;3.58;;;;;;;1.54;100.00;98885.81;5135599;27;20386;-75
2023/12/16 03:55:25;;;;;;;5.03;2.90;;;;;;;1.44;100.00;98894.69;5154141;27;20053;-75
2023/12/16 03:57:51;;;;;;;5.50;3.13;;;;;;;1.48;100.00;98901.66;5135455;27;20105;-75
2023/12/16 04:00:17;;;;;;;5.05;3.03;;;;;;;1.55;100.00;98913.94;5154036;27;20083;-75
2023/12/16 04:02:42;;;;;;;5.07;3.08;;;;;;;1.59;100.00;98915.69;5153822;27;20025;-76
2023/12/16 04:05:08;;;;;;;6.47;3.53;;;;;;;1.64;100.00;98921.81;5134354;27;20022;-76
2023/12/16 04:07:34;;;;;;;7.38;4.20;;;;;;;1.67;100.00;98923.56;5135459;27;20027;-77
2023/12/16 04:10:00;;;;;;;6.32;3.88;;;;;;;1.64;100.00;98928.84;5153819;27;20067;-77
2023/12/16 04:12:25;;;;;;;7.32;3.97;;;;;;;1.51;100.00;98927.13;5135190;27;20041;-77
2023/12/16 04:14:51;;;;;;;6.65;4.00;;;;;;;1.49;100.00;98936.81;5135090;27;20029;-77
2023/12/16 04:17:16;;;;;;;7.88;4.13;;;;;;;1.55;100.00;98942.94;5133589;27;20018;-77
2023/12/16 04:19:52;;;;;;;5.25;3.63;;;;;;;1.69;100.00;98942.91;5131222;27;20034;-78
2023/12/16 04:22:18;;;;;;;7.20;4.10;;;;;;;1.67;100.00;98944.66;5117803;27;20163;-78
2023/12/16 04:24:44;;;;;;;6.70;4.00;;;;;;;1.74;100.00;98942.88;5117901;27;20103;-77
2023/12/16 04:27:10;;;;;;;7.65;4.32;;;;;;;1.77;100.00;98956.03;5153242;27;20027;-77
2023/12/16 04:29:36;;;;;;;11.18;4.22;;;;;;;1.73;100.00;98960.44;5134866;27;20022;-77
2023/12/16 04:32:01;;;;;;;10.80;6.28;;;;;;;1.61;100.00;98977.22;5134630;27;20029;-77
2023/12/16 04:34:27;;;;;;;15.40;8.88;;;;;;;1.62;100.00;98978.97;5134350;27;20018;-77
2023/12/16 04:36:52;;;;;;;12.30;5.43;;;;;;;1.67;100.00;98970.13;5134643;27;20031;-77
2023/12/16 04:39:18;;;;;;;11.70;5.88;;;;;;;1.69;100.00;98965.75;5134498;27;20101;-77
2023/12/16 04:41:44;;;;;;;10.00;5.80;;;;;;;1.70;100.00;98954.31;5129890;27;20026;-77
2023/12/16 04:44:10;;;;;;;11.40;5.10;;;;;;;1.60;100.00;98972.81;5134548;27;20027;-76
2023/12/16 04:46:35;;;;;;;11.52;5.10;;;;;;;1.60;100.00;98975.44;5152887;27;20027;-76
2023/12/16 04:49:01;;;;;;;15.55;9.63;;;;;;;1.66;100.00;98973.69;5134268;27;20021;-77
2023/12/16 04:51:27;;;;;;;8.50;4.50;;;;;;;1.52;100.00;98974.59;5128701;27;20022;-78
2023/12/16 04:53:53;;;;;;;8.77;3.95;;;;;;;1.61;100.00;98982.47;5117165;27;20562;-77
2023/12/16 04:56:19;;;;;;;10.50;4.22;;;;;;;1.68;100.00;98985.97;5116971;27;20403;-77
2023/12/16 04:58:44;;;;;;;8.98;4.85;;;;;;;1.64;100.00;98976.31;5117253;27;20406;-77
2023/12/16 05:01:10;;;;;;;11.75;5.80;;;;;;;1.56;100.00;98979.00;5134589;27;20091;-77
2023/12/16 05:03:36;;;;;;;33.17;12.75;;;;;;;1.58;100.00;98985.13;5122333;27;20031;-78
2023/12/16 05:06:01;;;;;;;29.70;12.77;;;;;;;1.57;100.00;98980.72;5128576;27;20054;-78
2023/12/16 05:08:27;;;;;;;12.63;6.22;;;;;;;1.65;100.00;98991.25;5133902;27;20470;-78
2023/12/16 05:10:52;;;;;;;15.30;6.10;;;;;;;1.67;100.00;98985.97;5152724;27;20481;-78
2023/12/16 05:13:18;;;;;;;16.35;7.80;;;;;;;1.68;100.00;98982.44;5133948;27;20062;-78
2023/12/16 05:15:43;;;;;;;17.38;8.30;;;;;;;1.69;100.00;98995.66;5134009;27;20054;-79
2023/12/16 05:18:09;;;;;;;12.52;5.88;;;;;;;1.68;100.00;99003.56;5133493;27;20022;-78
2023/12/16 05:20:35;;;;;;;12.85;6.45;;;;;;;1.72;100.00;99010.59;5152298;27;20030;-78
2023/12/16 05:23:02;;;;;;;10.52;5.85;;;;;;;1.76;100.00;99013.19;5116807;27;20031;-79
2023/12/16 05:25:29;;;;;;;8.45;4.95;;;;;;;1.74;100.00;99009.69;5133510;27;20026;-77
2023/12/16 05:27:55;;;;;;;7.47;4.25;;;;;;;1.64;100.00;99014.09;5152527;27;20114;-78
2023/12/16 05:30:21;;;;;;;7.95;4.68;;;;;;;1.74;100.00;99014.09;5152387;27;20033;-77
2023/12/16 05:32:46;;;;;;;9.63;4.82;;;;;;;1.75;100.00;99005.28;5133533;27;20034;-76
2023/12/16 05:35:12;;;;;;;9.70;5.05;;;;;;;1.82;100.00;99015.81;5152141;27;20027;-77
2023/12/16 05:37:37;;;;;;;15.82;7.30;;;;;;;1.77;100.00;98995.59;5133465;27;20038;-75
2023/12/16 05:40:03;;;;;;;13.73;7.10;;;;;;;1.75;100.00;99015.84;5152231;27;20477;-76
2023/12/16 05:42:29;;;;;;;15.60;7.78;;;;;;;1.76;100.00;99007.03;5151930;27;20083;-77
2023/12/16 05:44:55;;;;;;;19.27;9.05;;;;;;;1.74;100.00;99008.81;5151984;27;20118;-77
2023/12/16 05:47:21;;;;;;;16.38;7.35;;;;;;;1.64;100.00;99013.22;5133709;27;20065;-77
2023/12/16 05:49:47;;;;;;;15.38;8.52;;;;;;;1.54;100.00;99015.00;5133362;27;20485;-76
2023/12/16 05:52:12;;;;;;;23.67;11.20;;;;;;;1.52;100.00;99014.16;5112678;27;20125;-76
2023/12/16 05:54:38;;;;;;;20.17;10.45;;;;;;;1.56;100.00;99015.91;5113200;27;20426;-76
2023/12/16 05:57:04;;;;;;;22.20;11.27;;;;;;;1.54;100.00;99017.66;5125055;27;20027;-75
2023/12/16 05:59:30;;;;;;;30.23;13.15;;;;;;;1.52;100.00;99006.25;5127654;27;20030;-76
2023/12/16 06:01:55;;;;;;;23.45;11.55;;;;;;;1.62;100.00;99025.56;5132587;27;20038;-77
2023/12/16 06:04:21;;;;;;;33.55;14.65;;;;;;;1.69;100.00;99035.22;5143477;27;20493;-76
2023/12/16 06:06:47;;;;;;;29.48;13.45;;;;;;;1.70;100.00;99042.22;5150135;27;20058;-77
2023/12/16 06:09:13;;;;;;;26.98;11.80;;;;;;;1.70;100.00;99030.78;5132238;27;20026;-76
2023/12/16 06:11:39;;;;;;;18.52;9.52;;;;;;;1.70;100.00;99043.97;5131273;27;20097;-76
2023/12/16 06:14:07;;;;;;;18.60;9.18;;;;;;;1.81;100.00;99051.00;5125005;27;20074;-76
2023/12/16 06:16:33;;;;;;;25.35;11.98;;;;;;;1.76;100.00;99054.50;5132405;27;20030;-76
2023/12/16 06:18:59;;;;;;;19.15;9.00;;;;;;;1.81;100.00;99053.63;5120123;27;20106;-76
2023/12/16 06:21:25;;;;;;;23.73;11.40;;;;;;;1.82;100.00;99049.22;5124248;28;20455;-76
2023/12/16 06:23:50;;;;;;;23.80;12.75;;;;;;;1.83;100.00;99059.78;5136729;27;20118;-76
2023/12/16 06:26:16;;;;;;;32.88;16.73;;;;;;;1.74;100.00;99058.91;5113217;27;20119;-76
2023/12/16 06:28:42;;;;;;;26.00;14.07;;;;;;;1.75;100.00;99069.47;5116467;27;20026;-83
2023/12/16 06:31:16;;;;;;;27.33;14.23;;;;;;;1.77;100.00;99072.09;5120203;27;20122;-76
2023/12/16 06:33:42;;;;;;;126.15;60.40;;;;;;;1.92;100.00;99072.03;5119690;27;20026;-77
2023/12/16 06:36:07;;;;;;;28.10;15.30;;;;;;;1.91;100.00;99065.88;5153843;27;20026;-85
2023/12/16 06:38:33;;;;;;;23.48;14.23;;;;;;;1.90;100.00;99071.19;5118046;27;20105;-85
2023/12/16 06:40:59;;;;;;;39.78;16.45;;;;;;;2.04;100.00;99087.84;5135584;27;20023;-87
2023/12/16 06:43:24;;;;;;;27.80;14.25;;;;;;;2.02;100.00;99094.88;5127426;27;20104;-85
2023/12/16 06:45:50;;;;;;;24.50;13.70;;;;;;;2.04;100.00;99086.06;5104635;27;20038;-84
2023/12/16 06:48:15;;;;;;;28.45;15.48;;;;;;;2.19;100.00;99095.69;5113442;27;20461;-84
2023/12/16 06:50:41;;;;;;;27.58;14.02;;;;;;;2.18;100.00;99109.78;5114269;27;20038;-85
2023/12/16 06:53:07;;;;;;;28.20;13.93;;;;;;;2.12;100.00;99117.72;5134099;27;20031;-84
2023/12/16 06:55:32;;;;;;;26.40;14.43;;;;;;;2.17;100.00;99111.56;5116926;27;20107;-85
2023/12/16 06:57:58;;;;;;;28.73;16.10;;;;;;;2.19;100.00;99122.09;5108703;27;20518;-84
2023/12/16 07:00:24;;;;;;;23.77;12.77;;;;;;;2.16;100.00;99120.34;5112134;27;20122;-83
2023/12/16 07:02:49;;;;;;;24.67;11.55;;;;;;;2.15;100.00;99120.38;5125427;27;20034;-84
2023/12/16 07:05:15;;;;;;;29.98;14.43;;;;;;;2.17;100.00;99123.88;5099987;27;20043;-84
2023/12/16 07:07:40;;;;;;;23.85;11.60;;;;;;;2.15;100.00;99137.06;5106872;27;20138;-84
2023/12/16 07:10:07;;;;;;;26.75;12.77;;;;;;;2.17;100.00;99148.50;5115807;27;20484;-83
2023/12/16 07:12:32;;;;;;;27.85;14.05;;;;;;;2.09;100.00;99146.78;5114017;27;20450;-84
2023/12/16 07:14:58;;;;;;;18.05;10.05;;;;;;;1.97;100.00;99154.72;5106208;27;20063;-83
2023/12/16 07:17:24;;;;;;;23.40;10.75;;;;;;;1.74;100.00;99141.56;5107535;27;20095;-84
2023/12/16 07:19:50;;;;;;;26.02;12.27;;;;;;;1.80;100.00;99161.75;5116265;27;20023;-83
2023/12/16 07:22:16;;;;;;;19.88;10.30;;;;;;;1.81;100.00;99166.16;5099155;27;20468;-84
2023/12/16 07:24:42;;;;;;;27.60;12.05;;;;;;;1.86;100.00;99161.75;5116422;27;20189;-84
2023/12/16 07:27:08;;;;;;;25.98;13.13;;;;;;;1.94;100.00;99165.28;5108219;27;20030;-84
2023/12/16 07:29:36;;;;;;;33.00;17.90;;;;;;;1.84;100.00;99160.88;5134069;27;20159;-83
2023/12/16 07:32:04;;;;;;;15.95;8.00;;;;;;;1.81;100.00;99171.44;5115958;27;20087;-84
2023/12/16 07:34:29;;;;;;;16.05;8.98;;;;;;;1.81;100.00;99168.81;5130553;27;20049;-83
2023/12/16 07:36:56;;;;;;;19.35;10.07;;;;;;;1.85;100.00;99170.53;5126025;27;20462;-83
2023/12/16 07:39:22;;;;;;;21.98;11.55;;;;;;;1.97;100.00;99171.41;5120970;27;20481;-84
2023/12/16 07:41:48;;;;;;;18.13;9.38;;;;;;;1.94;100.00;99181.97;5115635;27;20037;-84
2023/12/16 07:44:13;;;;;;;15.63;8.80;;;;;;;1.90;100.00;99179.34;5113818;27;20537;-85
2023/12/16 07:46:42;;;;;;;12.48;6.95;;;;;;;1.95;100.00;99188.13;5113800;27;20049;-85
2023/12/16 07:49:08;;;;;;;11.13;7.00;;;;;;;1.84;100.00;99182.00;5129374;27;20027;-82
2023/12/16 07:51:35;;;;;;;15.90;9.07;;;;;;;1.92;100.00;99188.13;5107892;27;20751;-83
2023/12/16 07:54:02;;;;;;;18.05;9.15;;;;;;;2.03;100.00;99197.78;5115677;27;20076;-84
2023/12/16 07:56:28;;;;;;;17.50;8.77;;;;;;;1.84;100.00;99192.53;5117406;27;20497;-84
2023/12/16 07:58:54;;;;;;;15.73;8.30;;;;;;;1.93;100.00;99209.25;5114558;27;20031;-84
2023/12/16 08:01:20;;;;;;;17.27;9.30;;;;;;;1.93;100.00;99200.44;5129148;27;20105;-84
2023/12/16 08:03:47;;;;;;;19.77;9.75;;;;;;;1.95;100.00;99203.97;5115516;27;20118;-85
2023/12/16 08:06:14;;;;;;;20.83;10.45;;;;;;;2.00;100.00;99207.50;5114851;27;20502;-83
2023/12/16 08:08:41;;;;;;;24.80;10.70;;;;;;;2.03;100.00;99205.69;5114078;27;20355;-85
2023/12/16 08:11:08;;;;;;;21.05;10.40;;;;;;;2.16;100.00;99211.84;5117699;27;20040;-84
2023/12/16 08:13:34;;;;;;;19.77;10.02;;;;;;;2.21;100.00;99214.47;5120249;27;20045;-84
2023/12/16 08:16:01;;;;;;;18.55;11.43;;;;;;;2.30;100.00;99217.97;5125820;27;20031;-85
2023/12/16 08:18:27;;;;;;;18.27;9.23;;;;;;;2.31;100.00;99201.25;5113514;27;20058;-83
2023/12/16 08:20:52;;;;;;;14.48;7.95;;;;;;;2.29;100.00;99208.28;5133113;27;20421;-86
2023/12/16 08:23:19;;;;;;;12.98;7.47;;;;;;;2.28;100.00;99201.25;5107328;27;20038;-84
2023/12/16 08:25:45;;;;;;;13.90;8.63;;;;;;;2.37;100.00;99214.41;5115634;27;20030;-85
2023/12/16 08:28:10;;;;;;;37.08;19.48;;;;;;;2.47;100.00;99216.16;5117715;27;20469;-77
2023/12/16 08:30:36;;;;;;;13.38;7.90;;;;;;;2.39;100.00;99219.72;5114148;27;20038;-74
2023/12/16 08:33:02;;;;;;;21.55;12.40;;;;;;;2.40;100.00;99227.63;5132327;27;20086;-75
2023/12/16 08:35:28;;;;;;;12.38;6.68;;;;;;;2.46;100.00;99217.03;5132083;27;20023;-75
2023/12/16 08:37:57;;;;;;;11.07;6.20;;;;;;;2.35;100.00;99212.69;5110181;27;20039;-74
2023/12/16 08:40:24;;;;;;;13.50;7.30;;;;;;;2.31;100.00;99230.28;5128694;27;20514;-76
2023/12/16 08:42:50;;;;;;;11.65;6.68;;;;;;;2.24;100.00;99223.28;5132732;27;20027;-76
2023/12/16 08:45:15;;;;;;;13.13;7.35;;;;;;;2.23;100.00;99216.22;5123945;27;20421;-75
2023/12/16 08:47:41;;;;;;;14.43;7.90;;;;;;;2.39;100.00;99228.53;5130100;27;20125;-74
2023/12/16 08:50:07;;;;;;;13.30;7.22;;;;;;;2.48;100.00;99223.22;5125372;27;20494;-75
2023/12/16 08:52:34;;;;;;;14.15;7.57;;;;;;;2.66;100.00;99227.53;5129315;27;20034;-75
2023/12/16 08:55:00;;;;;;;14.73;8.43;;;;;;;2.52;100.00;99224.09;5105685;27;20110;-75
2023/12/16 08:57:27;;;;;;;19.52;7.95;;;;;;;2.60;100.00;99222.28;5105088;27;20046;-75
2023/12/16 08:59:56;;;;;;;18.75;8.82;;;;;;;2.60;100.00;99220.53;5123459;27;20031;-76
2023/12/16 09:02:22;;;;;;;20.63;10.02;;;;;;;2.47;100.00;99216.16;5122586;27;20042;-75
2023/12/16 09:04:48;;;;;;;22.60;10.82;;;;;;;2.58;100.00;99213.50;5131081;27;20031;-75
2023/12/16 09:07:13;;;;;;;21.55;10.27;;;;;;;2.44;100.00;99216.16;5098095;27;20043;-75
2023/12/16 09:09:39;;;;;;;16.70;9.13;;;;;;;2.38;100.00;99203.00;5120868;27;20037;-76
2023/12/16 09:12:07;;;;;;;17.90;10.40;;;;;;;2.45;100.00;99194.19;5149363;27;20055;-76
2023/12/16 09:14:33;;;;;;;18.42;10.40;;;;;;;2.30;100.00;99202.16;5132109;27;20467;-75
2023/12/16 09:17:00;;;;;;;16.00;9.18;;;;;;;2.30;100.00;99202.16;5131272;27;20504;-76
2023/12/16 09:19:25;;;;;;;17.88;9.68;;;;;;;2.37;100.00;99203.84;5131320;27;20464;-75
2023/12/16 09:21:51;;;;;;;21.23;11.15;;;;;;;2.48;100.00;99180.97;5130849;27;20110;-76
2023/12/16 09:24:17;;;;;;;16.27;8.95;;;;;;;2.48;100.00;99191.53;5130836;27;20027;-75
2023/12/16 09:26:44;;;;;;;13.52;7.57;;;;;;;2.51;100.00;99188.88;5149874;27;20045;-76
2023/12/16 09:29:10;;;;;;;19.55;9.43;;;;;;;2.64;100.00;99197.63;5108904;27;20031;-76
2023/12/16 09:31:36;;;;;;;16.05;9.23;;;;;;;2.69;100.00;99186.16;5118592;27;20079;-76
2023/12/16 09:34:02;;;;;;;17.45;9.82;;;;;;;2.78;100.00;99189.63;5122714;27;20027;-76
2023/12/16 09:36:28;;;;;;;16.63;8.80;;;;;;;2.63;100.00;99180.00;5134663;27;20047;-74
2023/12/16 09:38:57;;;;;;;24.50;9.85;;;;;;;2.80;100.00;99183.44;5112606;27;20030;-84
2023/12/16 09:41:30;;;;;;;20.35;9.95;;;;;;;2.98;100.00;99188.66;5137912;27;20038;-87
2023/12/16 09:43:58;;;;;;;14.75;7.88;;;;;;;3.00;100.00;99176.31;5115559;27;20148;-79
2023/12/16 09:46:28;;;;;;;13.75;7.88;;;;;;;3.02;100.00;99171.00;5131668;27;20035;-78
2023/12/16 09:48:54;;;;;;;14.63;8.73;;;;;;;3.09;100.00;99186.81;5149149;27;20035;-77
2023/12/16 09:51:23;;;;;;;18.42;9.00;;;;;;;3.02;100.00;99171.00;5130827;27;20039;-78
2023/12/16 09:53:53;;;;;;;11.40;7.45;;;;;;;2.99;100.00;99178.94;5130581;27;20099;-77
2023/12/16 09:56:19;;;;;;;12.25;7.22;;;;;;;2.95;100.00;99178.09;5128318;27;20458;-79
2023/12/16 09:58:46;;;;;;;9.43;5.85;;;;;;;2.93;100.00;99184.25;5112982;27;20035;-78
2023/12/16 10:01:12;;;;;;;15.07;7.57;;;;;;;3.06;100.00;99178.03;5113254;27;20058;-78
2023/12/16 10:03:39;;;;;;;12.60;7.72;;;;;;;3.25;100.00;99174.38;5129679;27;20027;-79
2023/12/16 10:06:09;;;;;;;17.52;8.13;;;;;;;3.38;100.00;99173.41;5127221;27;20047;-79
2023/12/16 10:08:35;;;;;;;15.50;8.60;;;;;;;3.51;100.00;99180.34;5125678;27;20493;-77
2023/12/16 10:11:05;;;;;;;15.02;8.80;;;;;;;3.49;100.00;99165.38;5111490;27;20049;-80
2023/12/16 10:13:32;;;;;;;17.65;8.52;;;;;;;3.44;100.00;99170.72;5126155;27;20029;-78
2023/12/16 10:15:59;;;;;;;22.10;7.78;;;;;;;3.34;100.00;99166.38;5117283;28;20031;-79
2023/12/16 10:18:28;;;;;;;29.30;14.40;;;;;;;3.49;100.00;99168.03;5109642;27;20479;-78
2023/12/16 10:20:55;;;;;;;13.18;6.88;;;;;;;3.37;100.00;99155.78;5130471;27;20477;-76
2023/12/16 10:23:24;;;;;;;48.08;22.05;;;;;;;3.48;100.00;99166.25;5113396;27;20090;-77
2023/12/16 10:25:50;;;;;;;18.85;10.68;;;;;;;3.53;100.00;99152.13;5124941;27;20072;-76
2023/12/16 10:28:16;;;;;;;15.35;8.90;;;;;;;3.53;100.00;99164.47;5113061;27;20117;-80
2023/12/16 10:30:42;;;;;;;11.07;6.53;;;;;;;3.40;100.00;99149.59;5109503;27;20474;-78
2023/12/16 10:33:09;;;;;;;12.05;6.55;;;;;;;3.45;100.00;99161.88;5128115;27;20023;-78
2023/12/16 10:35:36;;;;;;;11.95;6.57;;;;;;;3.56;100.00;99165.34;5129636;27;20022;-78
2023/12/16 10:38:02;;;;;;;12.18;8.05;;;;;;;3.38;100.00;99168.13;5131931;27;20034;-77
2023/12/16 10:40:28;;;;;;;18.77;8.50;;;;;;;3.41;100.00;99168.09;5126509;27;20545;-78
2023/12/16 10:42:54;;;;;;;17.17;8.80;;;;;;;3.46;100.00;99176.00;5109522;27;20435;-78
2023/12/16 10:45:20;;;;;;;22.80;9.95;;;;;;;3.51;100.00;99177.72;5127038;27;20080;-77
2023/12/16 10:47:50;;;;;;;17.60;7.95;;;;;;;3.52;100.00;99170.66;5132427;27;20027;-79
2023/12/16 10:50:16;;;;;;;19.25;8.43;;;;;;;3.56;100.00;99162.69;5132592;27;20413;-78
2023/12/16 10:52:45;;;;;;;15.25;8.07;;;;;;;3.50;100.00;99175.97;5115752;27;20455;-79
2023/12/16 10:55:37;;;;;;;16.20;8.05;;;;;;;3.61;100.00;99186.44;5129925;27;20565;-81
2023/12/16 10:58:06;;;;;;;42.47;20.40;;;;;;;3.56;100.00;99183.84;5103005;27;20058;-79
2023/12/16 11:00:32;;;;;;;15.30;8.85;;;;;;;3.47;100.00;99167.19;5105306;27;20065;-79
2023/12/16 11:03:14;;;;;;;15.15;8.55;;;;;;;3.56;100.00;99177.69;5113067;27;20030;-78
2023/12/16 11:05:44;;;;;;;16.85;7.65;;;;;;;3.71;100.00;99177.56;5129779;27;20058;-77
2023/12/16 11:08:11;;;;;;;20.45;9.48;;;;;;;3.73;100.00;99171.34;5128420;27;20566;-79
2023/12/16 11:10:36;;;;;;;18.08;10.48;;;;;;;3.73;100.00;99171.34;5127568;27;20098;-79
2023/12/16 11:13:03;;;;;;;18.33;9.48;;;;;;;3.80;100.00;99165.13;5124963;27;20094;-79
2023/12/16 11:15:33;;;;;;;16.42;8.15;;;;;;;3.99;100.00;99178.19;5131543;27;20067;-79
2023/12/16 11:18:21;;;;;;;17.90;10.18;;;;;;;3.96;100.00;99162.34;5116446;27;20525;-79
2023/12/16 11:20:50;;;;;;;14.55;7.65;;;;;;;3.98;100.00;99165.84;5112731;27;20118;-80
2023/12/16 11:23:18;;;;;;;21.67;10.52;;;;;;;4.03;100.00;99171.97;5128897;27;20035;-77